createdAt,value
2022-08-05T00:01:48.631Z,42.89
2022-08-05T00:04:18.172Z,43.08
2022-08-05T00:06:47.268Z,43.04
2022-08-05T00:09:19.498Z,43.10
2022-08-05T00:11:56.063Z,43.24
2022-08-05T00:14:29.248Z,43.32
2022-08-05T00:17:01.643Z,43.36
2022-08-05T00:19:33.352Z,43.45
2022-08-05T00:22:13.185Z,43.52
2022-08-05T00:24:42.422Z,43.43
2022-08-05T00:27:16.618Z,43.52
2022-08-05T00:29:44.973Z,43.58
2022-08-05T00:32:14.929Z,43.59
2022-08-05T00:35:05.326Z,43.53
2022-08-05T00:37:53.272Z,43.78
2022-08-05T00:40:27.829Z,43.91
2022-08-05T00:42:59.072Z,43.89
2022-08-05T00:45:38.446Z,43.87
2022-08-05T00:48:09.281Z,44.01
2022-08-05T00:50:39.448Z,44.06
2022-08-05T00:54:00.396Z,44.01
2022-08-05T00:55:58.164Z,44.23
2022-08-05T00:58:27.349Z,44.19
2022-08-05T01:00:56.033Z,44.29
2022-08-05T01:03:30.997Z,44.30
2022-08-05T01:06:02.596Z,44.36
2022-08-05T01:08:43.183Z,44.29
2022-08-05T01:11:33.635Z,44.39
2022-08-05T01:14:33.774Z,44.44
2022-08-05T01:17:22.682Z,44.55
2022-08-05T01:20:03.659Z,44.59
2022-08-05T01:22:40.555Z,44.44
2022-08-05T01:25:10.395Z,44.53
2022-08-05T01:27:55.406Z,44.55
2022-08-05T01:30:34.308Z,44.56
2022-08-05T01:33:09.377Z,44.72
2022-08-05T01:35:51.343Z,44.81
2022-08-05T01:38:24.785Z,44.71
2022-08-05T01:41:01.533Z,44.72
2022-08-05T01:43:30.899Z,44.66
2022-08-05T01:46:07.276Z,44.77
2022-08-05T01:48:49.757Z,44.75
2022-08-05T01:51:18.835Z,44.82
2022-08-05T01:53:57.327Z,44.65
2022-08-05T01:58:11.439Z,44.78
2022-08-05T01:59:23.119Z,44.87
2022-08-05T02:01:54.857Z,44.77
2022-08-05T02:04:25.900Z,44.89
2022-08-05T02:06:53.505Z,44.88
2022-08-05T02:09:20.876Z,44.98
2022-08-05T02:12:13.479Z,44.97
2022-08-05T02:14:49.280Z,44.91
2022-08-05T02:18:12.509Z,44.93
2022-08-05T02:20:22.269Z,44.94
2022-08-05T02:22:59.942Z,45.06
2022-08-05T02:25:49.594Z,44.96
2022-08-05T02:28:28.929Z,45.07
2022-08-05T02:31:07.594Z,45.05
2022-08-05T02:33:41.875Z,45.10
2022-08-05T02:36:15.552Z,45.07
2022-08-05T02:38:52.932Z,45.15
2022-08-05T02:41:28.834Z,45.15
2022-08-05T02:44:13.460Z,45.14
2022-08-05T02:46:59.903Z,45.35
2022-08-05T02:49:36.558Z,45.39
2022-08-05T02:52:13.541Z,45.52
2022-08-05T02:54:55.151Z,45.61
2022-08-05T02:58:19.950Z,45.61
2022-08-05T03:00:13.828Z,45.91
2022-08-05T03:02:43.557Z,46.00
2022-08-05T03:05:13.530Z,45.85
2022-08-05T03:08:06.811Z,45.86
2022-08-05T03:10:35.286Z,46.10
2022-08-05T03:13:16.786Z,45.87
2022-08-05T03:15:45.904Z,45.88
2022-08-05T03:18:17.395Z,45.83
2022-08-05T03:20:48.957Z,45.84
2022-08-05T03:23:18.492Z,45.86
2022-08-05T03:26:05.064Z,45.86
2022-08-05T03:28:39.639Z,45.97
2022-08-05T03:31:09.322Z,45.80
2022-08-05T03:33:52.711Z,45.93
2022-08-05T03:36:30.601Z,46.02
2022-08-05T03:38:58.437Z,46.10
2022-08-05T03:41:26.126Z,46.08
2022-08-05T03:44:11.421Z,46.21
2022-08-05T03:46:39.555Z,46.31
2022-08-05T03:49:07.637Z,46.27
2022-08-05T03:52:37.117Z,46.23
2022-08-05T03:55:34.206Z,46.32
2022-08-05T03:57:42.412Z,46.32
2022-08-05T04:00:16.503Z,46.32
2022-08-05T04:02:57.807Z,46.34
2022-08-05T04:05:33.288Z,46.46
2022-08-05T04:08:05.546Z,46.49
2022-08-05T04:10:38.001Z,46.40
2022-08-05T04:13:07.866Z,46.47
2022-08-05T04:15:37.179Z,46.52
2022-08-05T04:18:09.386Z,46.50
2022-08-05T04:20:38.341Z,46.51
2022-08-05T04:23:12.433Z,46.33
2022-08-05T04:26:00.372Z,46.44
2022-08-05T04:28:30.602Z,46.73
2022-08-05T04:31:00.852Z,46.44
2022-08-05T04:33:54.328Z,46.07
2022-08-05T04:36:46.304Z,45.41
2022-08-05T04:39:06.450Z,44.92
2022-08-05T04:41:37.251Z,44.40
2022-08-05T04:44:08.930Z,43.92
2022-08-05T04:46:38.692Z,43.29
2022-08-05T04:49:14.402Z,43.18
2022-08-05T04:51:45.480Z,43.52
2022-08-05T04:54:14.344Z,43.70
2022-08-05T04:56:42.578Z,43.85
2022-08-05T04:59:22.343Z,43.54
2022-08-05T05:02:35.401Z,43.01
2022-08-05T05:04:43.979Z,42.99
2022-08-05T05:07:17.269Z,42.52
2022-08-05T05:09:45.680Z,42.36
2022-08-05T05:12:13.968Z,42.24
2022-08-05T05:14:50.826Z,41.78
2022-08-05T05:17:23.722Z,41.23
2022-08-05T05:19:56.542Z,41.32
2022-08-05T05:22:26.786Z,41.25
2022-08-05T05:24:57.874Z,39.95
2022-08-05T05:27:44.458Z,39.21
2022-08-05T05:30:30.991Z,39.03
2022-08-05T05:33:16.624Z,38.36
2022-08-05T05:35:47.931Z,38.85
2022-08-05T05:38:22.560Z,38.37
2022-08-05T05:40:56.187Z,37.74
2022-08-05T05:43:57.396Z,37.63
2022-08-05T05:46:17.360Z,37.01
2022-08-05T05:48:48.674Z,36.75
2022-08-05T05:51:21.794Z,36.34
2022-08-05T05:53:57.828Z,36.16
2022-08-05T05:56:34.178Z,36.33
2022-08-05T05:59:06.525Z,36.64
2022-08-05T06:01:57.021Z,36.26
2022-08-05T06:04:25.964Z,35.69
2022-08-05T06:06:53.807Z,35.88
2022-08-05T06:09:26.658Z,35.67
2022-08-05T06:12:09.728Z,34.79
2022-08-05T06:14:40.267Z,34.42
2022-08-05T06:17:22.282Z,35.06
2022-08-05T06:19:57.103Z,34.52
2022-08-05T06:22:33.493Z,34.03
2022-08-05T06:25:59.095Z,33.99
2022-08-05T06:28:08.901Z,33.51
2022-08-05T06:30:39.911Z,33.53
2022-08-05T06:33:09.745Z,33.81
2022-08-05T06:36:03.559Z,33.68
2022-08-05T06:38:35.668Z,32.97
2022-08-05T06:41:07.919Z,32.09
2022-08-05T06:43:57.742Z,31.74
2022-08-05T06:46:30.261Z,31.91
2022-08-05T06:49:02.042Z,32.06
2022-08-05T06:51:33.534Z,31.78
2022-08-05T06:54:03.960Z,31.64
2022-08-05T06:56:34.952Z,31.26
2022-08-05T06:59:08.553Z,30.96
2022-08-05T07:01:41.516Z,31.06
2022-08-05T07:04:10.805Z,30.35
2022-08-05T07:06:41.650Z,30.08
2022-08-05T07:09:09.114Z,29.85
2022-08-05T07:11:39.865Z,29.80
2022-08-05T07:14:29.782Z,29.37
2022-08-05T07:17:58.409Z,28.83
2022-08-05T07:20:32.241Z,27.89
2022-08-05T07:22:38.367Z,28.21
2022-08-05T07:25:23.802Z,27.32
2022-08-05T07:28:17.094Z,27.29
2022-08-05T07:30:50.254Z,27.45
2022-08-05T07:33:37.209Z,26.89
2022-08-05T07:36:20.716Z,26.37
2022-08-05T07:38:49.857Z,26.58
2022-08-05T07:42:13.010Z,26.28
2022-08-05T07:44:18.891Z,25.93
2022-08-05T07:46:49.522Z,25.66
2022-08-05T07:49:19.945Z,25.10
2022-08-05T07:51:53.863Z,24.44
2022-08-05T07:54:30.220Z,24.22
2022-08-05T07:57:41.711Z,23.57
2022-08-05T07:59:48.930Z,23.04
2022-08-05T08:02:17.878Z,22.65
2022-08-05T08:04:47.007Z,22.92
2022-08-05T08:07:14.973Z,22.19
2022-08-05T08:09:43.166Z,22.07
2022-08-05T08:12:35.134Z,21.77
2022-08-05T08:15:03.586Z,21.56
2022-08-05T08:17:32.644Z,21.60
2022-08-05T08:20:22.275Z,21.75
2022-08-05T08:22:56.256Z,21.41
2022-08-05T08:25:26.951Z,21.34
2022-08-05T08:28:18.768Z,21.32
2022-08-05T08:30:59.548Z,21.35
2022-08-05T08:33:29.744Z,21.11
2022-08-05T08:36:38.582Z,20.96
2022-08-05T08:38:56.990Z,20.74
2022-08-05T08:41:52.657Z,20.81
2022-08-05T08:45:18.433Z,20.55
2022-08-05T08:47:47.307Z,20.52
2022-08-05T08:50:06.178Z,20.43
2022-08-05T08:52:57.740Z,20.40
2022-08-05T08:56:02.150Z,20.29
2022-08-05T08:58:15.514Z,20.02
2022-08-05T09:00:43.681Z,19.81
2022-08-05T09:03:15.971Z,19.95
2022-08-05T09:06:08.616Z,20.41
2022-08-05T09:08:31.839Z,20.51
2022-08-05T09:10:59.520Z,20.11
2022-08-05T09:13:31.543Z,20.24
2022-08-05T09:15:59.354Z,20.41
2022-08-05T09:18:27.217Z,20.41
2022-08-05T09:20:57.561Z,20.57
2022-08-05T09:23:39.958Z,20.79
2022-08-05T09:26:15.905Z,20.55
2022-08-05T09:28:49.092Z,20.66
2022-08-05T09:31:44.251Z,20.70
2022-08-05T09:34:09.625Z,20.73
2022-08-05T09:36:55.209Z,20.82
2022-08-05T09:39:41.346Z,20.65
2022-08-05T09:42:23.246Z,20.54
2022-08-05T09:44:56.641Z,20.39
2022-08-05T09:47:34.971Z,20.54
2022-08-05T09:50:18.272Z,20.59
2022-08-05T09:53:01.540Z,20.78
2022-08-05T09:55:56.197Z,20.61
2022-08-05T09:58:23.092Z,20.74
2022-08-05T10:00:57.576Z,20.68
2022-08-05T10:03:26.307Z,20.54
2022-08-05T10:06:15.602Z,20.56
2022-08-05T10:08:53.826Z,20.29
2022-08-05T10:11:23.794Z,20.35
2022-08-05T10:13:58.823Z,20.68
2022-08-05T10:16:37.804Z,20.52
2022-08-05T10:19:13.520Z,20.57
2022-08-05T10:21:41.328Z,20.56
2022-08-05T10:24:12.721Z,20.41
2022-08-05T10:26:51.686Z,20.57
2022-08-05T10:29:23.858Z,20.36
2022-08-05T10:32:54.431Z,20.14
2022-08-05T10:35:01.022Z,20.37
2022-08-05T10:37:41.323Z,20.60
2022-08-05T10:40:30.118Z,20.79
2022-08-05T10:43:11.195Z,20.82
2022-08-05T10:45:42.353Z,20.72
2022-08-05T10:48:56.518Z,20.78
2022-08-05T10:51:53.118Z,20.83
2022-08-05T10:55:01.693Z,20.59
2022-08-05T10:57:29.492Z,20.76
2022-08-05T11:00:17.963Z,21.09
2022-08-05T11:03:25.144Z,20.78
2022-08-05T11:06:15.032Z,21.10
2022-08-05T11:09:13.230Z,20.91
2022-08-05T11:11:52.560Z,21.31
2022-08-05T11:14:49.487Z,21.15
2022-08-05T11:17:57.232Z,21.20
2022-08-05T11:20:44.623Z,21.43
2022-08-05T11:24:02.847Z,21.48
2022-08-05T11:26:28.384Z,21.44
2022-08-05T11:29:12.699Z,21.49
2022-08-05T11:31:57.608Z,21.85
2022-08-05T11:34:51.125Z,21.75
2022-08-05T11:38:29.410Z,21.87
2022-08-05T11:41:13.824Z,21.88
2022-08-05T11:44:06.535Z,21.83
2022-08-05T11:46:58.119Z,22.02
2022-08-05T11:49:26.644Z,22.03
2022-08-05T11:51:57.546Z,22.04
2022-08-05T11:54:33.954Z,22.02
2022-08-05T11:57:25.321Z,22.10
2022-08-05T11:59:54.853Z,22.29
2022-08-05T12:02:36.126Z,22.37
2022-08-05T12:05:18.058Z,22.39
2022-08-05T12:08:03.520Z,22.52
2022-08-05T12:10:39.067Z,22.68
2022-08-05T12:13:48.719Z,22.95
2022-08-05T12:16:19.419Z,22.82
2022-08-05T12:18:49.554Z,22.90
2022-08-05T12:21:30.027Z,23.00
2022-08-05T12:24:14.256Z,22.94
2022-08-05T12:26:51.139Z,23.17
2022-08-05T12:29:23.791Z,23.12
2022-08-05T12:32:01.741Z,23.18
2022-08-05T12:34:39.690Z,23.25
2022-08-05T12:37:17.105Z,23.13
2022-08-05T12:39:51.637Z,23.20
2022-08-05T12:42:20.890Z,23.18
2022-08-05T12:44:50.354Z,23.17
2022-08-05T12:47:30.746Z,23.27
2022-08-05T12:50:04.404Z,23.26
2022-08-05T12:52:39.598Z,23.35
2022-08-05T12:55:25.212Z,23.30
2022-08-05T12:58:48.552Z,23.43
2022-08-05T13:02:02.520Z,23.43
2022-08-05T13:03:32.250Z,23.43
2022-08-05T13:06:01.630Z,23.36
2022-08-05T13:08:30.094Z,23.37
2022-08-05T13:11:04.107Z,23.55
2022-08-05T13:14:05.634Z,23.60
2022-08-05T13:16:20.762Z,23.74
2022-08-05T13:18:58.402Z,23.82
2022-08-05T13:21:27.766Z,23.72
2022-08-05T13:23:56.183Z,23.78
2022-08-05T13:26:29.841Z,23.73
2022-08-05T13:28:58.971Z,23.83
2022-08-05T13:31:34.063Z,23.86
2022-08-05T13:34:22.451Z,23.86
2022-08-05T13:36:53.681Z,23.96
2022-08-05T13:40:15.840Z,23.99
2022-08-05T13:42:14.023Z,23.89
2022-08-05T13:44:46.360Z,23.89
2022-08-05T13:47:35.996Z,23.96
2022-08-05T13:50:08.128Z,23.95
2022-08-05T13:52:39.331Z,23.95
2022-08-05T13:55:12.613Z,23.97
2022-08-05T13:58:05.944Z,24.05
2022-08-05T14:00:36.432Z,24.11
2022-08-05T14:03:04.096Z,24.05
2022-08-05T14:06:04.908Z,24.15
2022-08-05T14:08:34.759Z,24.31
2022-08-05T14:11:24.643Z,24.45
2022-08-05T14:13:59.613Z,24.19
2022-08-05T14:16:29.698Z,24.12
2022-08-05T14:19:04.618Z,24.28
2022-08-05T14:22:08.117Z,24.37
2022-08-05T14:24:23.220Z,24.33
2022-08-05T14:27:17.169Z,24.36
2022-08-05T14:29:51.430Z,24.35
2022-08-05T14:32:27.243Z,24.37
2022-08-05T14:34:56.823Z,24.36
2022-08-05T14:37:45.468Z,24.41
2022-08-05T14:40:14.281Z,24.37
2022-08-05T14:42:47.740Z,24.38
2022-08-05T14:45:17.050Z,24.40
2022-08-05T14:48:02.723Z,24.45
2022-08-05T14:50:32.202Z,24.37
2022-08-05T14:52:59.942Z,24.41
2022-08-05T14:55:38.776Z,24.54
2022-08-05T14:58:18.578Z,24.64
2022-08-05T15:00:58.300Z,24.62
2022-08-05T15:03:33.756Z,24.80
2022-08-05T15:06:06.819Z,24.79
2022-08-05T15:08:58.188Z,24.98
2022-08-05T15:11:51.556Z,24.96
2022-08-05T15:14:33.605Z,25.03
2022-08-05T15:17:47.172Z,24.93
2022-08-05T15:20:18.399Z,24.92
2022-08-05T15:23:00.453Z,24.82
2022-08-05T15:25:52.112Z,25.07
2022-08-05T15:28:27.767Z,24.93
2022-08-05T15:30:56.274Z,24.84
2022-08-05T15:34:19.353Z,25.07
2022-08-05T15:36:17.368Z,25.18
2022-08-05T15:40:57.418Z,25.23
2022-08-05T15:41:56.091Z,25.41
2022-08-05T15:44:30.228Z,25.28
2022-08-05T15:47:24.419Z,25.36
2022-08-05T15:50:17.353Z,25.38
2022-08-05T15:52:54.542Z,25.47
2022-08-05T15:55:24.491Z,25.54
2022-08-05T15:57:52.945Z,25.68
2022-08-05T16:00:26.031Z,25.56
2022-08-05T16:02:59.114Z,25.54
2022-08-05T16:05:28.383Z,25.60
2022-08-05T16:07:57.177Z,25.74
2022-08-05T16:10:27.001Z,25.84
2022-08-05T16:12:55.906Z,25.83
2022-08-05T16:15:24.018Z,25.90
2022-08-05T16:18:00.606Z,25.98
2022-08-05T16:20:32.436Z,25.94
2022-08-05T16:22:59.745Z,26.08
2022-08-05T16:25:34.216Z,26.03
2022-08-05T16:28:05.891Z,25.94
2022-08-05T16:30:34.445Z,26.17
2022-08-05T16:33:04.517Z,26.05
2022-08-05T16:35:33.593Z,26.07
2022-08-05T16:38:18.576Z,26.24
2022-08-05T16:40:55.642Z,26.34
2022-08-05T16:44:01.912Z,26.20
2022-08-05T16:46:55.702Z,26.23
2022-08-05T16:49:55.388Z,26.36
2022-08-05T16:52:38.422Z,26.63
2022-08-05T16:55:29.848Z,26.65
2022-08-05T16:58:21.964Z,26.66
2022-08-05T17:01:16.582Z,26.66
2022-08-05T17:04:27.437Z,26.91
2022-08-05T17:07:53.011Z,26.88
2022-08-05T17:10:57.553Z,27.24
2022-08-05T17:14:06.569Z,27.21
2022-08-05T17:17:02.874Z,27.29
2022-08-05T17:20:17.247Z,27.38
2022-08-05T17:24:03.817Z,27.58
2022-08-05T17:26:27.929Z,27.59
2022-08-05T17:29:16.068Z,27.61
2022-08-05T17:32:06.700Z,28.01
2022-08-05T17:35:01.200Z,27.95
2022-08-05T17:40:45.483Z,28.62
2022-08-05T17:43:15.162Z,28.53
2022-08-05T17:45:42.454Z,28.74
2022-08-05T17:48:10.941Z,28.81
2022-08-05T17:50:38.871Z,29.24
2022-08-05T17:53:08.527Z,29.38
2022-08-05T17:55:39.582Z,29.45
2022-08-05T17:58:11.209Z,29.73
2022-08-05T18:00:45.490Z,30.05
2022-08-05T18:03:33.463Z,30.22
2022-08-05T18:06:06.076Z,30.14
2022-08-05T18:08:45.072Z,30.52
2022-08-05T18:11:23.913Z,30.50
2022-08-05T18:13:55.365Z,30.82
2022-08-05T18:16:26.251Z,30.91
2022-08-05T18:18:54.046Z,31.09
2022-08-05T18:21:28.170Z,30.94
2022-08-05T18:24:15.243Z,31.07
2022-08-05T18:26:46.637Z,31.30
2022-08-05T18:29:16.873Z,31.83
2022-08-05T18:31:45.277Z,31.78
2022-08-05T18:34:15.522Z,31.74
2022-08-05T18:36:43.538Z,31.90
2022-08-05T18:39:41.736Z,31.97
2022-08-05T18:42:05.016Z,32.10
2022-08-05T18:44:49.330Z,32.32
2022-08-05T18:47:26.823Z,32.22
2022-08-05T18:50:15.532Z,32.55
2022-08-05T18:52:51.286Z,32.70
2022-08-05T18:55:21.640Z,32.76
2022-08-05T18:57:54.052Z,32.76
2022-08-05T19:00:29.149Z,32.79
2022-08-05T19:03:03.709Z,33.00
2022-08-05T19:06:11.320Z,33.19
2022-08-05T19:08:30.767Z,33.29
2022-08-05T19:11:15.678Z,33.43
2022-08-05T19:13:50.088Z,33.57
2022-08-05T19:16:31.982Z,33.52
2022-08-05T19:19:03.264Z,34.05
2022-08-05T19:21:34.460Z,34.19
2022-08-05T19:24:05.722Z,34.60
2022-08-05T19:26:54.986Z,34.43
2022-08-05T19:29:36.377Z,34.43
2022-08-05T19:32:08.659Z,34.56
2022-08-05T19:34:40.408Z,34.66
2022-08-05T19:37:09.763Z,35.11
2022-08-05T19:39:45.553Z,35.73
2022-08-05T19:42:35.581Z,35.64
2022-08-05T19:45:06.036Z,35.63
2022-08-05T19:47:37.584Z,35.72
2022-08-05T19:50:07.933Z,36.28
2022-08-05T19:52:40.133Z,36.50
2022-08-05T19:56:11.812Z,36.75
2022-08-05T19:58:14.566Z,36.86
2022-08-05T20:00:43.348Z,37.08
2022-08-05T20:03:11.367Z,37.28
2022-08-05T20:05:49.792Z,37.28
2022-08-05T20:08:20.424Z,37.19
2022-08-05T20:10:52.720Z,37.13
2022-08-05T20:13:54.420Z,37.23
2022-08-05T20:16:07.939Z,37.41
2022-08-05T20:18:36.606Z,37.36
2022-08-05T20:21:06.683Z,37.72
2022-08-05T20:23:40.432Z,37.85
2022-08-05T20:26:21.295Z,37.78
2022-08-05T20:28:54.044Z,38.44
2022-08-05T20:31:28.776Z,38.66
2022-08-05T20:34:12.440Z,38.77
2022-08-05T20:36:43.490Z,38.68
2022-08-05T20:39:13.544Z,38.71
2022-08-05T20:41:45.306Z,39.68
2022-08-05T20:44:18.579Z,39.96
2022-08-05T20:46:59.895Z,40.02
2022-08-05T20:49:27.589Z,40.40
2022-08-05T20:51:55.825Z,40.57
2022-08-05T20:54:59.028Z,40.81
2022-08-05T20:57:24.526Z,40.98
2022-08-05T21:00:19.519Z,41.04
2022-08-05T21:02:59.750Z,41.53
2022-08-05T21:05:47.791Z,41.96
2022-08-05T21:08:17.158Z,41.86
2022-08-05T21:10:48.682Z,42.09
2022-08-05T21:13:26.547Z,42.67
2022-08-05T21:16:04.774Z,43.19
2022-08-05T21:18:32.302Z,42.96
2022-08-05T21:20:59.428Z,43.20
2022-08-05T21:23:27.405Z,43.49
2022-08-05T21:26:06.355Z,43.22
2022-08-05T21:28:41.166Z,43.59
2022-08-05T21:31:18.983Z,44.01
2022-08-05T21:33:47.702Z,44.36
2022-08-05T21:36:19.090Z,44.61
2022-08-05T21:38:55.675Z,44.67
2022-08-05T21:41:23.236Z,44.53
2022-08-05T21:43:50.994Z,44.91
2022-08-05T21:46:29.930Z,45.04
2022-08-05T21:48:57.111Z,44.72
2022-08-05T21:52:16.094Z,44.73
2022-08-05T21:54:14.689Z,44.89
2022-08-05T21:56:44.666Z,45.02
2022-08-05T21:59:23.922Z,45.20
2022-08-05T22:01:54.607Z,45.42
2022-08-05T22:04:25.320Z,45.72
2022-08-05T22:06:52.954Z,45.73
2022-08-05T22:09:21.477Z,45.72
2022-08-05T22:11:50.025Z,45.89
2022-08-05T22:14:35.437Z,46.08
2022-08-05T22:17:07.041Z,46.02
2022-08-05T22:20:00.358Z,46.01
2022-08-05T22:22:26.868Z,46.08
2022-08-05T22:25:21.152Z,46.20
2022-08-05T22:28:05.073Z,46.32
2022-08-05T22:30:55.306Z,46.55
2022-08-05T22:33:57.973Z,46.52
2022-08-05T22:36:14.514Z,46.63
2022-08-05T22:38:48.105Z,46.63
2022-08-05T22:42:05.419Z,46.71
2022-08-05T22:44:08.220Z,46.79
2022-08-05T22:46:39.799Z,47.04
2022-08-05T22:49:12.456Z,47.03
2022-08-05T22:52:05.842Z,47.69
2022-08-05T22:54:36.730Z,47.72
2022-08-05T22:57:05.792Z,47.56
2022-08-05T22:59:45.542Z,47.72
2022-08-05T23:02:28.744Z,47.87
2022-08-05T23:05:01.827Z,47.94
2022-08-05T23:07:35.724Z,47.79
2022-08-05T23:10:13.718Z,47.93
2022-08-05T23:12:43.765Z,47.92
2022-08-05T23:15:11.890Z,48.06
2022-08-05T23:18:01.055Z,48.47
2022-08-05T23:20:27.204Z,48.15
2022-08-05T23:22:56.315Z,48.18
2022-08-05T23:25:52.394Z,48.54
2022-08-05T23:28:12.657Z,48.74
2022-08-05T23:30:43.556Z,49.23
2022-08-05T23:33:22.367Z,48.99
2022-08-05T23:35:55.932Z,49.02
2022-08-05T23:38:25.736Z,49.57
2022-08-05T23:40:53.104Z,49.36
2022-08-05T23:43:25.229Z,49.61
2022-08-05T23:46:20.201Z,50.73
2022-08-05T23:48:59.273Z,50.64
2022-08-05T23:51:27.482Z,50.81
2022-08-05T23:54:01.141Z,50.62
2022-08-05T23:56:29.136Z,50.71
2022-08-05T23:58:58.704Z,50.59
